createdAt,value
2023-05-18T00:00:16.271Z,99.90
2023-05-18T00:05:18.904Z,99.90
2023-05-18T00:10:20.826Z,99.90
2023-05-18T00:15:22.676Z,99.90
2023-05-18T00:20:26.615Z,99.90
2023-05-18T00:25:28.685Z,99.90
2023-05-18T00:30:30.699Z,99.90
2023-05-18T00:35:32.652Z,99.90
2023-05-18T00:40:34.687Z,99.90
2023-05-18T00:45:36.629Z,99.90
2023-05-18T00:50:38.584Z,99.90
2023-05-18T00:55:40.503Z,99.90
2023-05-18T01:00:42.341Z,99.90
2023-05-18T01:05:44.192Z,99.90
2023-05-18T01:10:51.785Z,99.90
2023-05-18T01:15:57.183Z,99.90
2023-05-18T01:21:19.606Z,99.90
2023-05-18T01:26:30.284Z,99.90
2023-05-18T01:31:32.270Z,99.90
2023-05-18T01:36:34.080Z,99.90
2023-05-18T01:41:39.807Z,99.90
2023-05-18T01:47:01.742Z,99.90
2023-05-18T01:52:11.914Z,99.90
2023-05-18T01:57:15.154Z,99.90
2023-05-18T02:02:17.669Z,99.90
2023-05-18T02:07:19.740Z,99.90
2023-05-18T02:12:21.477Z,99.90
2023-05-18T02:17:26.087Z,99.90
2023-05-18T02:22:27.894Z,99.90
2023-05-18T02:27:29.681Z,99.90
2023-05-18T02:32:38.282Z,99.90
2023-05-18T02:37:42.278Z,99.90
2023-05-18T02:42:44.015Z,99.90
2023-05-18T02:47:45.765Z,99.90
2023-05-18T02:52:49.821Z,99.90
2023-05-18T02:57:56.988Z,99.90
2023-05-18T03:03:00.459Z,99.90
2023-05-18T03:08:02.518Z,99.90
2023-05-18T03:13:04.556Z,99.90
2023-05-18T03:18:06.729Z,99.90
2023-05-18T03:23:08.585Z,99.90
2023-05-18T03:28:10.593Z,99.90
2023-05-18T03:33:12.497Z,99.90
2023-05-18T03:38:14.424Z,99.90
2023-05-18T03:43:16.173Z,99.90
2023-05-18T03:48:17.923Z,99.90
2023-05-18T03:53:21.438Z,99.90
2023-05-18T03:58:23.385Z,99.90
2023-05-18T04:03:27.176Z,99.90
2023-05-18T04:08:30.368Z,99.90
2023-05-18T04:13:32.267Z,99.90
2023-05-18T04:18:34.125Z,99.90
2023-05-18T04:23:39.181Z,99.90
2023-05-18T04:28:43.203Z,99.90
2023-05-18T04:33:46.678Z,99.90
2023-05-18T04:38:50.822Z,99.90
2023-05-18T04:43:53.669Z,99.90
2023-05-18T04:48:57.949Z,99.90
2023-05-18T04:53:59.668Z,99.90
2023-05-18T04:59:02.634Z,99.90
2023-05-18T05:04:06.366Z,99.90
2023-05-18T05:09:08.136Z,99.90
2023-05-18T05:14:09.945Z,99.90
2023-05-18T05:19:11.736Z,99.90
2023-05-18T05:24:13.497Z,99.90
2023-05-18T05:29:15.245Z,99.90
2023-05-18T05:34:17.003Z,99.90
2023-05-18T05:39:18.763Z,99.90
2023-05-18T05:44:20.566Z,99.90
2023-05-18T05:49:22.299Z,99.90
2023-05-18T05:54:24.189Z,99.90
2023-05-18T05:59:26.014Z,99.90
2023-05-18T06:04:27.987Z,99.90
2023-05-18T06:09:30.022Z,99.90
2023-05-18T06:14:31.782Z,99.90
2023-05-18T06:19:33.711Z,99.90
2023-05-18T06:24:35.430Z,99.90
2023-05-18T06:29:37.461Z,99.90
2023-05-18T06:34:39.713Z,99.90
2023-05-18T06:39:41.448Z,99.90
2023-05-18T06:44:43.518Z,99.90
2023-05-18T06:49:45.448Z,99.90
2023-05-18T06:54:47.283Z,99.90
2023-05-18T06:59:53.608Z,99.90
2023-05-18T07:04:55.415Z,99.90
2023-05-18T07:09:57.418Z,99.90
2023-05-18T07:14:59.166Z,99.90
2023-05-18T07:20:01.164Z,99.90
2023-05-18T07:25:03.009Z,99.90
2023-05-18T07:30:05.512Z,99.90
2023-05-18T07:35:07.389Z,99.90
2023-05-18T07:40:10.446Z,99.90
2023-05-18T07:45:12.678Z,99.90
2023-05-18T07:50:14.460Z,99.90
2023-05-18T07:55:16.525Z,99.90
2023-05-18T08:00:19.112Z,99.90
2023-05-18T08:05:22.516Z,99.90
2023-05-18T08:10:24.388Z,99.90
2023-05-18T08:15:26.166Z,99.90
2023-05-18T08:20:30.147Z,99.90
2023-05-18T08:25:32.202Z,99.90
2023-05-18T08:30:34.325Z,99.90
2023-05-18T08:35:36.245Z,99.90
2023-05-18T08:40:45.509Z,99.90
2023-05-18T08:45:52.353Z,99.90
2023-05-18T08:50:58.146Z,99.90
2023-05-18T08:56:00.598Z,99.90
2023-05-18T09:01:03.965Z,99.90
2023-05-18T09:06:07.169Z,99.90
2023-05-18T09:11:10.094Z,99.90
2023-05-18T09:16:12.058Z,99.90
2023-05-18T09:21:13.837Z,99.90
2023-05-18T09:26:15.651Z,99.90
2023-05-18T09:31:18.998Z,99.90
2023-05-18T09:36:26.211Z,99.90
2023-05-18T09:41:28.322Z,99.90
2023-05-18T09:46:32.539Z,98.70
2023-05-18T09:51:39.200Z,99.90
2023-05-18T09:56:40.967Z,99.40
2023-05-18T10:02:05.913Z,99.00
2023-05-18T10:07:15.935Z,97.90
2023-05-18T10:12:21.167Z,97.20
2023-05-18T10:17:25.741Z,97.00
2023-05-18T10:22:28.207Z,95.80
2023-05-18T10:27:31.658Z,96.80
2023-05-18T10:32:36.098Z,97.90
2023-05-18T10:37:47.278Z,95.30
2023-05-18T10:42:50.601Z,94.50
2023-05-18T10:47:54.737Z,93.70
2023-05-18T10:52:59.170Z,93.00
2023-05-18T10:58:07.307Z,94.50
2023-05-18T11:03:14.209Z,91.30
2023-05-18T11:08:26.777Z,92.50
2023-05-18T11:13:30.187Z,91.40
2023-05-18T11:18:42.534Z,92.70
2023-05-18T11:23:46.936Z,94.30
2023-05-18T11:28:52.647Z,95.20
2023-05-18T11:33:54.404Z,93.00
2023-05-18T11:39:11.135Z,91.80
2023-05-18T11:44:14.128Z,93.00
2023-05-18T11:49:17.326Z,91.20
2023-05-18T11:54:19.154Z,90.70
2023-05-18T11:59:42.031Z,90.90
2023-05-18T12:04:50.705Z,92.50
2023-05-18T12:09:52.701Z,91.60
2023-05-18T12:14:58.362Z,92.40
2023-05-18T12:20:00.172Z,91.20
2023-05-18T12:25:01.932Z,91.80
2023-05-18T12:30:03.865Z,92.80
2023-05-18T12:35:07.163Z,92.50
2023-05-18T12:40:09.596Z,93.20
2023-05-18T12:45:11.798Z,93.80
2023-05-18T12:50:13.568Z,92.50
2023-05-18T12:55:23.013Z,94.90
2023-05-18T13:00:24.947Z,93.60
2023-05-18T13:05:26.714Z,94.20
2023-05-18T13:10:32.793Z,93.10
2023-05-18T13:15:36.440Z,92.70
2023-05-18T13:20:51.733Z,93.70
2023-05-18T13:25:54.369Z,94.20
2023-05-18T13:30:58.336Z,94.50
2023-05-18T13:36:00.130Z,93.10
2023-05-18T13:41:02.224Z,93.20
2023-05-18T13:46:04.642Z,95.40
2023-05-18T13:51:06.631Z,94.80
2023-05-18T13:56:08.493Z,95.00
2023-05-18T14:01:12.773Z,95.70
2023-05-18T14:06:15.392Z,95.10
2023-05-18T14:11:17.136Z,95.80
2023-05-18T14:16:18.934Z,96.80
2023-05-18T14:21:20.910Z,96.70
2023-05-18T14:26:23.033Z,95.30
2023-05-18T14:31:24.897Z,95.70
2023-05-18T14:36:26.911Z,94.40
2023-05-18T14:41:28.715Z,94.20
2023-05-18T14:46:31.200Z,95.10
2023-05-18T14:51:33.411Z,94.60
2023-05-18T14:56:35.676Z,95.00
2023-05-18T15:01:37.457Z,94.10
2023-05-18T15:06:39.301Z,95.50
2023-05-18T15:11:41.017Z,96.30
2023-05-18T15:16:42.914Z,94.30
2023-05-18T15:21:44.992Z,94.80
2023-05-18T15:26:47.003Z,96.40
2023-05-18T15:31:51.069Z,95.40
2023-05-18T15:36:53.811Z,95.50
2023-05-18T15:41:56.383Z,95.00
2023-05-18T15:46:58.197Z,95.80
2023-05-18T15:51:59.916Z,95.60
2023-05-18T15:57:01.955Z,96.20
2023-05-18T16:02:03.775Z,95.90
2023-05-18T16:07:05.696Z,93.80
2023-05-18T16:12:08.248Z,95.20
2023-05-18T16:17:10.219Z,95.00
2023-05-18T16:22:12.107Z,94.30
2023-05-18T16:27:13.818Z,95.10
2023-05-18T16:32:15.543Z,95.50
2023-05-18T16:37:17.359Z,94.00
2023-05-18T16:42:20.738Z,94.30
2023-05-18T16:47:22.945Z,94.30
2023-05-18T16:52:24.668Z,95.20
2023-05-18T16:57:27.546Z,94.90
2023-05-18T17:02:29.660Z,96.30
2023-05-18T17:07:31.528Z,97.00
2023-05-18T17:12:33.650Z,96.00
2023-05-18T17:17:35.438Z,95.90
2023-05-18T17:22:37.896Z,96.30
2023-05-18T17:27:39.684Z,95.70
2023-05-18T17:32:41.750Z,96.50
2023-05-18T17:37:43.550Z,95.70
2023-05-18T17:42:45.269Z,96.30
2023-05-18T17:47:47.126Z,96.00
2023-05-18T17:52:48.922Z,97.40
2023-05-18T17:57:51.647Z,96.80
2023-05-18T18:02:54.049Z,97.40
2023-05-18T18:07:57.611Z,97.80
2023-05-18T18:12:59.467Z,97.00
2023-05-18T18:18:01.255Z,97.80
2023-05-18T18:23:03.523Z,97.20
2023-05-18T18:28:05.482Z,97.30
2023-05-18T18:33:07.252Z,97.40
2023-05-18T18:38:09.253Z,97.60
2023-05-18T18:43:11.040Z,98.20
2023-05-18T18:48:12.858Z,98.00
2023-05-18T18:53:14.794Z,98.10
2023-05-18T18:58:16.552Z,98.80
2023-05-18T19:03:18.325Z,99.50
2023-05-18T19:08:20.158Z,99.10
2023-05-18T19:13:22.174Z,99.70
2023-05-18T19:18:24.259Z,99.90
2023-05-18T19:23:26.234Z,99.90
2023-05-18T19:28:28.172Z,99.50
2023-05-18T19:33:29.993Z,99.90
2023-05-18T19:38:31.708Z,99.90
2023-05-18T19:43:33.420Z,99.90
2023-05-18T19:48:35.194Z,99.90
2023-05-18T19:53:36.974Z,99.90
2023-05-18T19:58:38.717Z,99.90
2023-05-18T20:03:43.154Z,99.90
2023-05-18T20:08:45.143Z,99.90
2023-05-18T20:13:46.849Z,99.90
2023-05-18T20:18:48.603Z,99.90
2023-05-18T20:23:50.535Z,99.90
2023-05-18T20:28:53.048Z,99.90
2023-05-18T20:33:57.534Z,99.90
2023-05-18T20:38:59.304Z,99.90
2023-05-18T20:44:02.025Z,99.90
2023-05-18T20:49:04.492Z,99.90
2023-05-18T20:54:06.797Z,99.90
2023-05-18T20:59:09.991Z,99.90
2023-05-18T21:04:13.200Z,99.90
2023-05-18T21:09:18.323Z,99.90
2023-05-18T21:14:20.088Z,99.90
2023-05-18T21:19:21.876Z,99.90
2023-05-18T21:24:23.970Z,99.90
2023-05-18T21:29:25.805Z,99.90
2023-05-18T21:34:27.506Z,99.90
2023-05-18T21:39:29.313Z,99.90
2023-05-18T21:44:31.045Z,99.90
2023-05-18T21:49:32.790Z,99.90
2023-05-18T21:54:35.641Z,99.90
2023-05-18T21:59:37.461Z,99.90
2023-05-18T22:04:39.263Z,99.90
2023-05-18T22:09:41.075Z,99.90
2023-05-18T22:14:42.792Z,99.90
2023-05-18T22:19:45.640Z,99.90
2023-05-18T22:24:48.751Z,99.90
2023-05-18T22:29:50.483Z,99.90
2023-05-18T22:34:52.209Z,99.90
2023-05-18T22:39:54.109Z,99.90
2023-05-18T22:44:56.257Z,99.90
2023-05-18T22:49:57.999Z,99.90
2023-05-18T22:54:59.732Z,99.90
2023-05-18T23:00:01.508Z,99.90
2023-05-18T23:05:04.812Z,99.90
2023-05-18T23:10:09.297Z,99.90
2023-05-18T23:15:11.875Z,99.90
2023-05-18T23:20:13.655Z,99.90
2023-05-18T23:25:15.482Z,99.90
2023-05-18T23:30:17.255Z,99.90
2023-05-18T23:35:19.378Z,99.90
2023-05-18T23:40:22.236Z,99.90
2023-05-18T23:45:24.243Z,99.90
2023-05-18T23:50:26.464Z,99.90
2023-05-18T23:55:28.395Z,99.90
